Time;durP1;ratioP1;P1;durP2;ratioP2;P2;SDS_P1;SDS_P2;PMS_P1;PMS_P2;Temp;Humidity;BMP_temperature;BMP_pressure;BME280_temperature;BME280_humidity;BME280_pressure;Samples;Min_cycle;Max_cycle;Signal;HPM_P1;HPM_P2
2022/01/02 00:01:44;;;;;;;10.90;7.30;;;7.40;99.90;;;;;;5054682;28;20233;-64
2022/01/02 00:04:15;;;;;;;10.07;7.37;;;7.40;99.90;;;;;;5054472;28;20287;-65
2022/01/02 00:06:47;;;;;;;8.97;6.87;;;7.40;99.90;;;;;;5054608;28;20339;-65
2022/01/02 00:09:30;;;;;;;10.87;7.60;;;7.40;99.90;;;;;;5054567;28;20674;-64
2022/01/02 00:12:03;;;;;;;10.10;7.17;;;7.50;99.90;;;;;;5054646;28;20240;-65
2022/01/02 00:14:34;;;;;;;10.87;7.37;;;7.50;99.90;;;;;;5054474;28;20235;-65
2022/01/02 00:17:03;;;;;;;11.47;7.47;;;7.50;99.90;;;;;;5053403;28;20209;-64
2022/01/02 00:19:32;;;;;;;9.53;7.23;;;7.50;99.90;;;;;;5054661;28;20205;-64
2022/01/02 00:22:01;;;;;;;12.40;7.73;;;7.40;99.90;;;;;;5055121;28;20233;-64
2022/01/02 00:24:32;;;;;;;10.07;7.30;;;7.50;99.90;;;;;;5054319;28;20704;-64
2022/01/02 00:27:00;;;;;;;11.47;7.17;;;7.50;99.90;;;;;;5054018;28;20213;-64
2022/01/02 00:29:27;;;;;;;9.43;7.13;;;7.40;99.90;;;;;;5054090;28;20205;-64
2022/01/02 00:31:54;;;;;;;10.67;7.63;;;7.50;99.90;;;;;;5054287;28;20226;-64
2022/01/02 00:34:22;;;;;;;8.37;7.07;;;7.50;99.90;;;;;;5054111;28;20736;-64
2022/01/02 00:36:48;;;;;;;10.23;7.23;;;7.50;99.90;;;;;;5054040;28;20567;-64
2022/01/02 00:39:17;;;;;;;11.23;7.47;;;7.50;99.90;;;;;;5053945;28;20217;-64
2022/01/02 00:41:49;;;;;;;9.17;6.70;;;7.50;99.90;;;;;;5053982;28;20240;-64
2022/01/02 00:44:28;;;;;;;10.27;7.57;;;7.50;99.90;;;;;;5054048;28;20316;-63
2022/01/02 00:47:05;;;;;;;9.77;7.20;;;7.60;99.90;;;;;;5053969;28;20248;-64
2022/01/02 00:49:37;;;;;;;8.87;6.73;;;7.60;99.90;;;;;;5053825;28;20724;-64
2022/01/02 00:52:07;;;;;;;10.03;7.30;;;7.60;99.90;;;;;;5053628;28;20283;-64
2022/01/02 00:54:37;;;;;;;9.60;7.17;;;7.60;99.90;;;;;;5053882;28;20224;-64
2022/01/02 00:57:10;;;;;;;8.33;6.63;;;7.60;99.90;;;;;;5053369;28;20708;-64
2022/01/02 00:59:47;;;;;;;8.63;6.00;;;7.40;99.90;;;;;;5053833;28;20212;-64
2022/01/02 01:02:17;;;;;;;9.13;6.47;;;7.40;99.90;;;;;;5053591;28;20236;-64
2022/01/02 01:04:45;;;;;;;8.90;6.83;;;7.30;99.90;;;;;;5053378;28;20233;-64
2022/01/02 01:07:12;;;;;;;9.57;6.10;;;7.20;99.90;;;;;;5053211;28;20213;-65
2022/01/02 01:09:41;;;;;;;7.93;6.17;;;7.20;99.90;;;;;;5053495;28;20666;-65
2022/01/02 01:12:11;;;;;;;7.30;6.10;;;7.20;99.90;;;;;;5053275;28;20624;-64
2022/01/02 01:14:38;;;;;;;8.37;6.17;;;7.20;99.90;;;;;;5053412;28;20206;-64
2022/01/02 01:17:05;;;;;;;7.80;6.10;;;7.20;99.90;;;;;;5052982;28;20205;-64
2022/01/02 01:19:32;;;;;;;7.57;6.00;;;7.20;99.90;;;;;;5053281;28;20233;-64
2022/01/02 01:21:58;;;;;;;9.73;5.93;;;7.10;99.90;;;;;;5053393;28;20229;-66
2022/01/02 01:24:25;;;;;;;9.23;6.80;;;7.10;99.90;;;;;;5053054;28;20700;-64
2022/01/02 01:26:55;;;;;;;7.60;6.47;;;7.10;99.90;;;;;;5052939;28;20206;-64
2022/01/02 01:29:23;;;;;;;8.80;6.67;;;7.10;99.90;;;;;;5053155;28;20201;-64
2022/01/02 01:31:50;;;;;;;8.83;6.77;;;7.10;99.90;;;;;;5054009;28;20275;-63
2022/01/02 01:34:17;;;;;;;8.33;6.53;;;7.00;99.90;;;;;;5053496;28;20665;-64
2022/01/02 01:36:44;;;;;;;8.77;6.80;;;7.00;99.90;;;;;;5052944;28;20210;-66
2022/01/02 01:39:11;;;;;;;7.83;6.47;;;7.00;99.90;;;;;;5053109;28;20263;-65
2022/01/02 01:41:39;;;;;;;11.00;7.33;;;6.80;99.90;;;;;;5076152;22;20230;-63
2022/01/02 01:44:26;;;;;;;8.63;6.80;;;6.70;99.90;;;;;;5052616;28;20222;-62
2022/01/02 01:46:55;;;;;;;7.63;6.40;;;6.70;99.90;;;;;;5052609;28;20680;-62
2022/01/02 01:49:27;;;;;;;8.60;6.27;;;6.60;99.90;;;;;;5053025;28;20210;-62
2022/01/02 01:51:54;;;;;;;9.53;6.80;;;6.70;99.90;;;;;;5052758;28;20240;-62
2022/01/02 01:54:21;;;;;;;10.23;7.00;;;6.70;99.90;;;;;;5052690;28;20259;-63
2022/01/02 01:56:50;;;;;;;9.77;6.90;;;6.70;99.90;;;;;;5052164;28;20665;-62
2022/01/02 01:59:18;;;;;;;10.27;6.97;;;6.70;99.90;;;;;;5052528;28;20661;-62
2022/01/02 02:01:45;;;;;;;8.73;6.33;;;6.70;99.90;;;;;;5052484;28;20267;-62
2022/01/02 02:04:13;;;;;;;9.03;6.87;;;6.80;99.90;;;;;;5052470;28;20233;-63
2022/01/02 02:06:40;;;;;;;9.50;6.87;;;6.80;99.90;;;;;;5052399;28;20202;-63
2022/01/02 02:09:07;;;;;;;8.83;6.87;;;6.80;99.90;;;;;;5052266;28;20213;-63
2022/01/02 02:11:37;;;;;;;11.00;7.23;;;6.80;99.90;;;;;;5052865;28;20724;-62
2022/01/02 02:14:06;;;;;;;10.40;7.23;;;6.80;99.90;;;;;;5052977;28;20201;-63
2022/01/02 02:16:34;;;;;;;8.10;6.47;;;6.80;99.90;;;;;;5052190;28;20255;-63
2022/01/02 02:19:00;;;;;;;8.33;6.00;;;6.80;99.90;;;;;;5052042;28;20212;-62
2022/01/02 02:21:30;;;;;;;11.43;6.90;;;6.70;99.90;;;;;;5052067;28;20237;-62
2022/01/02 02:23:57;;;;;;;9.03;6.53;;;6.60;99.90;;;;;;5051846;28;20217;-63
2022/01/02 02:26:24;;;;;;;8.90;6.23;;;6.50;99.90;;;;;;5052159;28;20266;-63
2022/01/02 02:28:50;;;;;;;8.53;6.00;;;6.40;99.90;;;;;;5051920;28;20206;-61
2022/01/02 02:31:17;;;;;;;10.00;6.60;;;6.30;99.90;;;;;;5052204;28;20644;-60
2022/01/02 02:33:44;;;;;;;9.20;6.50;;;6.20;99.90;;;;;;5052076;28;20201;-62
2022/01/02 02:36:13;;;;;;;8.97;7.07;;;6.30;99.90;;;;;;5051900;28;20218;-60
2022/01/02 02:38:41;;;;;;;9.77;6.63;;;6.30;99.90;;;;;;5051522;28;20205;-62
2022/01/02 02:41:08;;;;;;;9.90;6.10;;;6.40;99.90;;;;;;5051914;28;20229;-61
2022/01/02 02:43:42;;;;;;;9.30;6.63;;;6.40;99.90;;;;;;5051940;28;20599;-62
2022/01/02 02:49:03;;;;;;;9.63;6.83;;;6.40;99.90;;;;;;5051618;28;20585;-61
2022/01/02 02:51:43;;;;;;;9.17;6.20;;;6.40;99.90;;;;;;5051956;28;20294;-62
2022/01/02 02:54:17;;;;;;;9.37;6.63;;;6.40;99.90;;;;;;5051733;28;20733;-62
2022/01/02 02:56:53;;;;;;;9.20;6.50;;;6.50;99.90;;;;;;5051703;28;20209;-62
2022/01/02 02:59:21;;;;;;;8.53;6.47;;;6.40;99.90;;;;;;5051894;28;20284;-62
2022/01/02 03:01:47;;;;;;;8.80;6.77;;;6.40;99.90;;;;;;5051841;28;20302;-62
2022/01/02 03:04:14;;;;;;;7.40;5.80;;;6.40;99.90;;;;;;5051604;28;20770;-62
2022/01/02 03:06:41;;;;;;;9.07;6.00;;;6.40;99.90;;;;;;5051891;28;20213;-62
2022/01/02 03:09:08;;;;;;;9.00;6.73;;;6.40;99.90;;;;;;5051613;28;20202;-62
2022/01/02 03:11:37;;;;;;;9.40;6.03;;;6.40;99.90;;;;;;5051471;28;20673;-62
2022/01/02 03:14:05;;;;;;;10.57;6.60;;;6.40;99.90;;;;;;5051651;28;20754;-62
2022/01/02 03:16:32;;;;;;;6.93;5.87;;;6.30;99.90;;;;;;5051750;28;20656;-62
2022/01/02 03:18:58;;;;;;;11.20;6.20;;;6.20;99.90;;;;;;5051597;28;20279;-62
2022/01/02 03:21:26;;;;;;;8.70;5.53;;;6.10;99.90;;;;;;5051580;28;20232;-61
2022/01/02 03:23:53;;;;;;;7.20;5.53;;;6.10;99.90;;;;;;5051438;28;20279;-61
2022/01/02 03:26:20;;;;;;;7.93;6.10;;;6.00;99.90;;;;;;5051530;28;20206;-62
2022/01/02 03:28:48;;;;;;;7.37;5.83;;;6.10;99.90;;;;;;5051389;28;20202;-62
2022/01/02 03:31:15;;;;;;;8.87;5.93;;;6.20;99.90;;;;;;5051530;28;20225;-62
2022/01/02 03:33:43;;;;;;;7.07;5.40;;;6.20;99.90;;;;;;5051531;28;20209;-62
2022/01/02 03:36:10;;;;;;;8.03;5.67;;;6.30;99.90;;;;;;5051579;28;20232;-62
2022/01/02 03:38:37;;;;;;;6.70;5.80;;;6.30;99.90;;;;;;5051320;28;20251;-62
2022/01/02 03:41:04;;;;;;;9.03;6.03;;;6.40;99.90;;;;;;5051270;28;20238;-62
2022/01/02 03:43:31;;;;;;;7.67;5.70;;;6.50;99.90;;;;;;5051467;28;20453;-62
2022/01/02 03:46:02;;;;;;;8.57;6.10;;;6.50;99.90;;;;;;5051401;28;20708;-62
2022/01/02 03:48:29;;;;;;;7.10;5.50;;;6.50;99.90;;;;;;5051231;28;20251;-62
2022/01/02 03:50:56;;;;;;;7.50;5.40;;;6.60;99.90;;;;;;5053079;28;20209;-63
2022/01/02 03:53:22;;;;;;;7.57;5.50;;;6.70;99.90;;;;;;5054854;28;20205;-62
2022/01/02 03:55:49;;;;;;;7.80;5.13;;;6.70;99.90;;;;;;5055004;28;20201;-62
2022/01/02 03:58:16;;;;;;;7.73;5.30;;;6.70;99.90;;;;;;5054521;28;20213;-62
2022/01/02 04:00:42;;;;;;;6.50;5.07;;;6.70;99.90;;;;;;5054771;28;20279;-62
2022/01/02 04:03:10;;;;;;;6.63;5.30;;;6.70;99.90;;;;;;5054789;28;20213;-62
2022/01/02 04:05:37;;;;;;;8.30;5.40;;;6.70;99.90;;;;;;5054626;28;20228;-62
2022/01/02 04:08:04;;;;;;;9.03;5.80;;;6.70;99.90;;;;;;5054318;28;20263;-62
2022/01/02 04:10:31;;;;;;;7.23;5.47;;;6.80;99.90;;;;;;5054823;28;20236;-62
2022/01/02 04:12:58;;;;;;;8.23;6.00;;;6.80;99.90;;;;;;5054650;28;20229;-62
2022/01/02 04:15:25;;;;;;;7.67;5.90;;;6.70;99.90;;;;;;5054507;28;20249;-61
2022/01/02 04:17:51;;;;;;;7.57;5.23;;;6.60;99.90;;;;;;5054135;28;20693;-61
2022/01/02 04:20:20;;;;;;;6.70;5.47;;;6.40;99.90;;;;;;5054427;28;20600;-62
2022/01/02 04:22:46;;;;;;;6.73;5.67;;;6.40;99.90;;;;;;5054962;28;20279;-62
2022/01/02 04:25:14;;;;;;;6.30;5.13;;;6.30;99.90;;;;;;5054218;28;20705;-62
2022/01/02 04:27:41;;;;;;;7.40;5.40;;;6.30;99.90;;;;;;5054180;28;20209;-62
2022/01/02 04:30:11;;;;;;;7.17;5.60;;;6.30;99.90;;;;;;5054289;28;20210;-62
2022/01/02 04:32:37;;;;;;;7.73;5.40;;;6.20;99.90;;;;;;5054276;28;20725;-62
2022/01/02 04:35:05;;;;;;;7.90;5.30;;;6.20;99.90;;;;;;5054058;28;20201;-62
2022/01/02 04:37:33;;;;;;;7.67;4.93;;;6.10;99.90;;;;;;5053710;28;20212;-62
2022/01/02 04:40:00;;;;;;;6.90;5.00;;;5.90;99.90;;;;;;5054250;28;20205;-61
2022/01/02 04:42:27;;;;;;;6.77;4.57;;;5.90;99.90;;;;;;5053958;28;20233;-61
2022/01/02 04:44:54;;;;;;;7.47;5.13;;;6.00;99.90;;;;;;5053916;28;20226;-62
2022/01/02 04:47:20;;;;;;;5.90;4.83;;;6.10;99.90;;;;;;5053761;28;20210;-62
2022/01/02 04:49:47;;;;;;;7.10;4.73;;;6.10;99.90;;;;;;5053967;28;20209;-62
2022/01/02 04:52:14;;;;;;;5.83;4.90;;;6.20;99.90;;;;;;5053757;28;20225;-62
2022/01/02 04:54:42;;;;;;;6.80;5.63;;;6.00;99.90;;;;;;5053915;28;20210;-62
2022/01/02 04:57:08;;;;;;;6.13;5.20;;;6.00;99.90;;;;;;5053516;28;20212;-62
2022/01/02 04:59:37;;;;;;;9.33;7.00;;;6.00;99.90;;;;;;5054193;28;20213;-62
2022/01/02 05:02:04;;;;;;;17.50;12.37;;;6.10;99.90;;;;;;5052958;28;20279;-62
2022/01/02 05:04:31;;;;;;;8.87;5.43;;;6.20;99.90;;;;;;5053677;28;20232;-62
2022/01/02 05:06:57;;;;;;;9.03;7.27;;;6.20;99.90;;;;;;5053733;28;20251;-62
2022/01/02 05:09:24;;;;;;;8.60;6.90;;;6.20;99.90;;;;;;5053485;28;20217;-62
2022/01/02 05:11:52;;;;;;;10.20;8.53;;;6.30;99.90;;;;;;5053499;28;20230;-62
2022/01/02 05:14:19;;;;;;;7.37;6.10;;;6.40;99.90;;;;;;5053499;28;20288;-62
2022/01/02 05:16:45;;;;;;;8.00;6.27;;;6.40;99.90;;;;;;5053236;28;20201;-61
2022/01/02 05:19:12;;;;;;;9.53;7.20;;;6.40;99.90;;;;;;5053366;28;20201;-62
2022/01/02 05:21:39;;;;;;;10.63;8.03;;;6.50;99.90;;;;;;5053326;28;20226;-62
2022/01/02 05:24:05;;;;;;;10.90;6.97;;;6.60;99.90;;;;;;5053360;28;20218;-62
2022/01/02 05:26:32;;;;;;;8.97;6.60;;;6.70;99.90;;;;;;5053358;28;20268;-62
2022/01/02 05:29:00;;;;;;;9.03;7.00;;;6.80;99.90;;;;;;5052894;28;20681;-62
2022/01/02 05:31:27;;;;;;;8.47;6.20;;;6.80;99.90;;;;;;5052931;28;20645;-62
2022/01/02 05:33:53;;;;;;;8.57;6.37;;;6.80;99.90;;;;;;5053257;28;20581;-62
2022/01/02 05:36:20;;;;;;;7.97;6.53;;;6.80;99.90;;;;;;5052871;28;20260;-62
2022/01/02 05:38:47;;;;;;;8.53;6.80;;;6.80;99.90;;;;;;5052855;28;20585;-61
2022/01/02 05:41:13;;;;;;;8.80;6.20;;;6.90;99.90;;;;;;5052831;28;20241;-62
2022/01/02 05:43:40;;;;;;;13.63;6.23;;;6.90;99.90;;;;;;5052753;28;20251;-62
2022/01/02 05:46:08;;;;;;;9.10;6.10;;;6.90;99.90;;;;;;5052423;28;20229;-62
2022/01/02 05:48:36;;;;;;;9.93;6.77;;;6.90;99.90;;;;;;5052944;28;20201;-62
2022/01/02 05:51:03;;;;;;;9.57;6.93;;;7.00;99.90;;;;;;5052883;28;20240;-63
2022/01/02 05:53:30;;;;;;;8.20;6.60;;;7.00;99.90;;;;;;5052685;28;20596;-62
2022/01/02 05:55:58;;;;;;;10.17;7.80;;;7.10;99.90;;;;;;5052542;28;20201;-62
2022/01/02 05:58:25;;;;;;;9.43;6.30;;;7.20;99.90;;;;;;5052530;28;20206;-62
2022/01/02 06:00:51;;;;;;;8.10;5.90;;;7.40;99.90;;;;;;5052648;28;20229;-62
2022/01/02 06:03:19;;;;;;;7.47;5.87;;;7.40;99.90;;;;;;5052556;28;20228;-62
2022/01/02 06:05:47;;;;;;;9.30;6.27;;;7.30;99.90;;;;;;5052450;28;20221;-62
2022/01/02 06:08:13;;;;;;;7.93;5.97;;;7.30;99.90;;;;;;5052293;28;20213;-62
2022/01/02 06:10:40;;;;;;;7.93;5.83;;;7.20;99.90;;;;;;5052276;28;20214;-62
2022/01/02 06:13:07;;;;;;;8.27;5.80;;;7.20;99.90;;;;;;5052032;28;20220;-62
2022/01/02 06:15:34;;;;;;;8.67;5.83;;;7.10;99.90;;;;;;5051943;28;20209;-62
2022/01/02 06:18:01;;;;;;;7.23;5.50;;;7.10;99.90;;;;;;5052120;28;20209;-61
2022/01/02 06:20:29;;;;;;;8.23;5.57;;;7.00;99.90;;;;;;5052297;28;20209;-62
2022/01/02 06:22:55;;;;;;;7.93;5.33;;;7.00;99.90;;;;;;5052178;28;20295;-62
2022/01/02 06:25:22;;;;;;;9.70;6.27;;;7.00;99.90;;;;;;5051935;28;20221;-63
2022/01/02 06:27:50;;;;;;;8.23;6.47;;;7.10;99.90;;;;;;5051972;28;20232;-62
2022/01/02 06:30:17;;;;;;;8.47;5.93;;;7.20;99.90;;;;;;5052177;28;20202;-61
2022/01/02 06:32:43;;;;;;;7.87;5.93;;;7.30;99.90;;;;;;5052039;28;20233;-61
2022/01/02 06:35:10;;;;;;;8.37;5.87;;;7.30;99.90;;;;;;5052058;28;20643;-61
2022/01/02 06:37:38;;;;;;;7.13;5.37;;;7.40;99.90;;;;;;5051670;28;20205;-61
2022/01/02 06:40:06;;;;;;;7.30;5.47;;;7.50;99.90;;;;;;5051860;28;20206;-61
2022/01/02 06:42:33;;;;;;;7.83;5.53;;;7.50;99.90;;;;;;5051927;28;20241;-61
2022/01/02 06:45:00;;;;;;;7.43;5.87;;;7.50;99.90;;;;;;5051938;28;20225;-61
2022/01/02 06:47:26;;;;;;;6.63;5.60;;;7.50;99.90;;;;;;5051795;28;20205;-61
2022/01/02 06:49:53;;;;;;;8.10;5.70;;;7.50;99.90;;;;;;5051837;28;20228;-61
2022/01/02 06:52:20;;;;;;;6.03;5.30;;;7.50;99.90;;;;;;5051851;28;20226;-61
2022/01/02 06:54:48;;;;;;;7.23;4.90;;;7.60;99.90;;;;;;5051839;28;20209;-61
2022/01/02 06:57:14;;;;;;;7.87;5.50;;;7.60;99.90;;;;;;5051677;28;20213;-61
2022/01/02 06:59:42;;;;;;;6.60;4.87;;;7.70;99.90;;;;;;5051972;28;20206;-61
2022/01/02 07:02:08;;;;;;;8.20;4.90;;;7.70;99.90;;;;;;5051752;28;20264;-61
2022/01/02 07:04:35;;;;;;;8.43;4.97;;;7.80;99.90;;;;;;5051707;28;20297;-61
2022/01/02 07:07:02;;;;;;;6.17;4.83;;;7.90;99.90;;;;;;5051639;28;20209;-61
2022/01/02 07:09:31;;;;;;;7.07;5.17;;;7.90;99.90;;;;;;5051305;28;20206;-61
2022/01/02 07:12:00;;;;;;;5.97;4.80;;;7.80;99.90;;;;;;5051748;28;20316;-61
2022/01/02 07:14:27;;;;;;;6.97;4.60;;;7.80;99.90;;;;;;5052052;28;20205;-61
2022/01/02 07:16:54;;;;;;;5.87;4.30;;;7.80;99.90;;;;;;5051912;28;20236;-61
2022/01/02 07:19:21;;;;;;;6.87;4.77;;;7.70;99.90;;;;;;5051418;28;20300;-63
2022/01/02 07:21:48;;;;;;;5.90;4.93;;;7.70;99.90;;;;;;5051421;28;20312;-61
2022/01/02 07:24:14;;;;;;;7.07;5.07;;;7.70;99.90;;;;;;5051819;28;20214;-61
2022/01/02 07:26:41;;;;;;;5.30;4.50;;;7.70;99.90;;;;;;5054834;28;20226;-61
2022/01/02 07:29:09;;;;;;;7.30;5.13;;;7.70;99.90;;;;;;5055123;28;20212;-61
2022/01/02 07:31:36;;;;;;;5.00;4.47;;;7.80;99.90;;;;;;5055361;28;20233;-61
2022/01/02 07:34:03;;;;;;;6.13;4.70;;;7.80;99.90;;;;;;5055606;28;20288;-61
2022/01/02 07:36:30;;;;;;;7.77;5.40;;;7.90;99.90;;;;;;5055018;28;20212;-61
2022/01/02 07:38:57;;;;;;;6.87;4.50;;;7.90;99.90;;;;;;5054965;28;20700;-61
2022/01/02 07:41:24;;;;;;;6.63;5.47;;;7.90;99.90;;;;;;5079081;22;20326;-59
2022/01/02 07:43:51;;;;;;;6.73;5.57;;;8.00;99.90;;;;;;5055231;28;20206;-62
2022/01/02 07:46:19;;;;;;;5.57;4.50;;;8.00;99.90;;;;;;5055540;28;20283;-59
2022/01/02 07:48:46;;;;;;;7.57;6.77;;;8.00;99.90;;;;;;5055177;28;20209;-61
2022/01/02 07:51:12;;;;;;;7.00;4.90;;;8.00;99.90;;;;;;5055300;28;20209;-59
2022/01/02 07:53:39;;;;;;;5.37;4.07;;;8.00;99.90;;;;;;5055475;28;20205;-60
2022/01/02 07:56:06;;;;;;;6.93;4.83;;;8.00;99.90;;;;;;5055000;28;20267;-60
2022/01/02 07:58:32;;;;;;;6.33;4.77;;;7.90;99.90;;;;;;5054688;28;20516;-60
2022/01/02 08:00:59;;;;;;;5.37;4.53;;;8.00;99.90;;;;;;5054761;28;20213;-59
2022/01/02 08:03:27;;;;;;;6.37;4.90;;;8.00;99.90;;;;;;5054777;28;20212;-59
2022/01/02 08:05:54;;;;;;;5.90;4.30;;;8.00;99.90;;;;;;5055068;28;20236;-60
2022/01/02 08:08:20;;;;;;;5.27;4.53;;;8.10;99.90;;;;;;5054797;28;20206;-60
2022/01/02 08:10:47;;;;;;;5.93;4.20;;;8.10;99.90;;;;;;5054656;28;20210;-60
2022/01/02 08:13:14;;;;;;;6.00;4.53;;;8.20;99.90;;;;;;5054711;28;20781;-60
2022/01/02 08:15:40;;;;;;;8.87;5.17;;;8.30;99.90;;;;;;5054465;28;20206;-60
2022/01/02 08:18:09;;;;;;;10.10;5.37;;;8.40;99.90;;;;;;5054101;28;20589;-60
2022/01/02 08:20:37;;;;;;;7.63;5.07;;;8.40;99.90;;;;;;5054724;28;20204;-60
2022/01/02 08:23:03;;;;;;;6.70;4.53;;;8.50;99.90;;;;;;5054585;28;20221;-60
2022/01/02 08:25:30;;;;;;;8.27;5.20;;;8.50;99.90;;;;;;5054525;28;20221;-60
2022/01/02 08:27:57;;;;;;;7.97;4.83;;;8.60;99.90;;;;;;5054241;28;20213;-60
2022/01/02 08:30:23;;;;;;;6.80;4.97;;;8.60;99.90;;;;;;5054362;28;20206;-59
2022/01/02 08:32:50;;;;;;;7.40;4.57;;;8.70;99.90;;;;;;5054900;28;20225;-60
2022/01/02 08:35:17;;;;;;;5.67;4.50;;;8.80;99.90;;;;;;5054320;28;20201;-60
2022/01/02 08:37:45;;;;;;;6.73;4.77;;;8.90;99.90;;;;;;5053064;28;20669;-60
2022/01/02 08:40:12;;;;;;;6.13;4.30;;;8.90;99.90;;;;;;5054155;28;20581;-60
2022/01/02 08:42:39;;;;;;;5.10;4.03;;;9.10;99.90;;;;;;5054466;28;20244;-60
2022/01/02 08:45:07;;;;;;;8.80;4.70;;;9.30;99.90;;;;;;5054052;28;20201;-60
2022/01/02 08:47:34;;;;;;;5.83;4.80;;;9.40;99.90;;;;;;5053495;28;20201;-60
2022/01/02 08:50:01;;;;;;;6.80;4.23;;;9.60;99.90;;;;;;5054286;28;20209;-61
2022/01/02 08:52:28;;;;;;;4.73;4.13;;;9.90;99.90;;;;;;5054077;28;20228;-60
2022/01/02 08:54:56;;;;;;;5.93;4.40;;;10.20;99.90;;;;;;5054141;28;20206;-60
2022/01/02 08:57:23;;;;;;;5.90;4.50;;;10.30;99.90;;;;;;5054151;28;20214;-60
2022/01/02 08:59:49;;;;;;;6.37;4.20;;;10.50;99.90;;;;;;5053482;28;20263;-61
2022/01/02 09:02:16;;;;;;;5.10;4.00;;;10.60;99.90;;;;;;5053782;28;20230;-60
2022/01/02 09:04:43;;;;;;;5.27;3.67;;;10.70;99.90;;;;;;5053744;28;20225;-60
2022/01/02 09:07:09;;;;;;;4.97;4.07;;;10.70;99.90;;;;;;5053653;28;20232;-61
2022/01/02 09:09:36;;;;;;;4.07;3.60;;;10.90;99.90;;;;;;5053222;28;20681;-60
2022/01/02 09:12:06;;;;;;;5.27;3.83;;;11.10;99.90;;;;;;5053238;28;20231;-60
2022/01/02 09:14:32;;;;;;;3.90;3.47;;;11.20;99.90;;;;;;5053184;28;20212;-60
2022/01/02 09:16:59;;;;;;;6.27;3.80;;;11.30;99.90;;;;;;5053414;28;20210;-62
2022/01/02 09:19:26;;;;;;;5.13;4.07;;;11.40;99.90;;;;;;5053253;28;20205;-63
2022/01/02 09:21:53;;;;;;;6.77;4.23;;;11.50;99.90;;;;;;5053351;28;20226;-58
2022/01/02 09:24:19;;;;;;;4.60;4.00;;;11.60;99.90;;;;;;5053334;28;20213;-56
2022/01/02 09:26:46;;;;;;;4.37;3.50;;;11.70;99.90;;;;;;5053533;28;20226;-55
2022/01/02 09:29:14;;;;;;;4.63;4.20;;;11.70;99.90;;;;;;5052728;28;20258;-56
2022/01/02 09:31:41;;;;;;;3.60;3.20;;;11.60;99.90;;;;;;5053245;28;20225;-57
2022/01/02 09:34:08;;;;;;;5.73;3.20;;;11.60;99.90;;;;;;5053189;28;20300;-55
2022/01/02 09:36:35;;;;;;;3.60;3.20;;;11.60;99.90;;;;;;5053030;28;20683;-56
2022/01/02 09:39:02;;;;;;;7.37;5.23;;;11.70;99.90;;;;;;5052799;28;20589;-56
2022/01/02 09:41:29;;;;;;;6.47;5.23;;;11.80;99.90;;;;;;5052737;28;20234;-55
2022/01/02 09:43:55;;;;;;;4.47;3.53;;;11.90;99.90;;;;;;5053057;28;20209;-56
2022/01/02 09:46:26;;;;;;;5.37;4.07;;;12.00;99.90;;;;;;5052790;28;20229;-56
2022/01/02 09:48:54;;;;;;;4.93;4.10;;;12.10;99.90;;;;;;5053310;28;20254;-56
2022/01/02 09:51:24;;;;;;;5.73;5.13;;;12.40;99.90;;;;;;5053008;28;20225;-56
2022/01/02 09:53:51;;;;;;;5.23;4.63;;;12.50;99.90;;;;;;5052922;28;20244;-56
2022/01/02 09:56:18;;;;;;;5.27;4.20;;;12.70;99.90;;;;;;5053008;28;20614;-57
2022/01/02 09:58:45;;;;;;;4.03;3.40;;;12.80;99.90;;;;;;5052653;28;20205;-56
2022/01/02 10:01:16;;;;;;;4.37;3.30;;;12.90;99.90;;;;;;5052524;28;20260;-56
2022/01/02 10:03:46;;;;;;;5.80;4.10;;;13.10;99.90;;;;;;5052807;28;20594;-62
2022/01/02 10:06:13;;;;;;;7.73;4.50;;;13.00;99.90;;;;;;5052565;28;20249;-59
2022/01/02 10:08:40;;;;;;;5.30;4.03;;;13.00;99.90;;;;;;5052512;28;20296;-60
2022/01/02 10:11:12;;;;;;;5.23;4.30;;;13.20;99.90;;;;;;5052541;28;20259;-60
2022/01/02 10:13:50;;;;;;;7.17;4.87;;;13.40;99.90;;;;;;5052851;28;20235;-60
2022/01/02 10:16:29;;;;;;;7.30;4.30;;;13.70;99.90;;;;;;5052631;28;20580;-60
2022/01/02 10:18:58;;;;;;;5.57;4.50;;;13.70;99.90;;;;;;5052194;28;20209;-60
2022/01/02 10:21:30;;;;;;;6.10;4.20;;;13.70;99.90;;;;;;5052574;28;20237;-60
2022/01/02 10:24:13;;;;;;;4.73;3.40;;;13.70;99.90;;;;;;5052598;28;20210;-60
2022/01/02 10:26:40;;;;;;;9.00;7.13;;;13.60;99.90;;;;;;5052212;28;20643;-59
2022/01/02 10:29:11;;;;;;;7.20;5.67;;;13.60;99.90;;;;;;5051990;28;20220;-60
2022/01/02 10:31:38;;;;;;;5.30;4.10;;;13.60;99.90;;;;;;5052508;28;20229;-59
2022/01/02 10:34:07;;;;;;;6.07;5.10;;;13.60;99.90;;;;;;5052161;28;20669;-60
2022/01/02 10:36:37;;;;;;;4.33;3.73;;;13.40;99.90;;;;;;5052696;28;20206;-60
2022/01/02 10:39:09;;;;;;;3.83;3.53;;;13.40;99.90;;;;;;5052033;28;20206;-60
2022/01/02 10:41:38;;;;;;;4.10;3.70;;;13.40;99.90;;;;;;5052181;28;20324;-59
2022/01/02 10:44:22;;;;;;;4.00;3.60;;;13.30;99.90;;;;;;5052371;28;20210;-59
2022/01/02 10:47:14;;;;;;;3.73;3.17;;;13.20;99.90;;;;;;5052322;28;20225;-59
2022/01/02 10:50:05;;;;;;;4.73;3.10;;;13.10;99.90;;;;;;5052088;28;20245;-61
2022/01/02 10:52:33;;;;;;;4.47;3.63;;;13.00;99.90;;;;;;5047842;28;20233;-58
2022/01/02 10:55:05;;;;;;;4.27;3.47;;;12.80;99.90;;;;;;5052249;28;20212;-59
2022/01/02 10:57:32;;;;;;;5.83;3.33;;;12.80;99.90;;;;;;5052083;28;20201;-59
2022/01/02 11:00:00;;;;;;;3.70;2.70;;;12.80;99.90;;;;;;5052424;28;20209;-59
2022/01/02 11:02:28;;;;;;;3.80;3.13;;;12.70;99.90;;;;;;5055939;28;20236;-59
2022/01/02 11:04:59;;;;;;;4.47;3.57;;;12.60;99.90;;;;;;5056481;28;20206;-59
2022/01/02 11:07:29;;;;;;;3.50;2.90;;;12.50;99.90;;;;;;5056185;28;20230;-60
2022/01/02 11:09:57;;;;;;;2.97;2.50;;;12.40;99.90;;;;;;5055849;28;20695;-59
2022/01/02 11:12:24;;;;;;;4.53;3.17;;;12.20;99.90;;;;;;5055952;28;20225;-60
2022/01/02 11:14:52;;;;;;;3.63;3.00;;;12.40;99.90;;;;;;5056063;28;20568;-59
2022/01/02 11:17:19;;;;;;;3.63;3.10;;;12.70;99.90;;;;;;5055954;28;20275;-60
2022/01/02 11:19:46;;;;;;;3.37;2.73;;;12.90;99.90;;;;;;5055711;28;20243;-60
2022/01/02 11:22:22;;;;;;;4.80;3.03;;;13.10;99.90;;;;;;5055797;28;20256;-60
2022/01/02 11:24:58;;;;;;;4.97;2.97;;;13.30;99.90;;;;;;5055993;28;20583;-60
2022/01/02 11:27:34;;;;;;;4.07;3.10;;;13.40;99.90;;;;;;5055763;28;20221;-60
2022/01/02 11:30:36;;;;;;;3.70;2.70;;;13.40;99.90;;;;;;5055723;28;20201;-59
2022/01/02 11:33:05;;;;;;;3.40;3.00;;;13.40;99.90;;;;;;5055571;28;20370;-59
2022/01/02 11:35:32;;;;;;;3.60;3.20;;;13.60;99.90;;;;;;5055378;28;20523;-59
2022/01/02 11:38:02;;;;;;;3.60;2.80;;;13.70;99.90;;;;;;5055184;28;20213;-59
2022/01/02 11:40:49;;;;;;;4.43;3.10;;;13.80;99.90;;;;;;5055287;28;20209;-60
2022/01/02 11:44:00;;;;;;;4.60;3.10;;;14.00;99.90;;;;;;5055329;28;20734;-60
2022/01/02 11:46:31;;;;;;;4.03;3.10;;;14.30;99.90;;;;;;5040367;28;20225;-59
2022/01/02 11:49:19;;;;;;;5.30;3.00;;;14.50;99.90;;;;;;5055241;28;20283;-59
2022/01/02 11:52:09;;;;;;;4.57;2.20;;;14.60;99.90;;;;;;5055492;28;20228;-59
2022/01/02 11:54:51;;;;;;;4.63;2.60;;;14.60;99.90;;;;;;5055828;28;20210;-60
2022/01/02 11:57:51;;;;;;;3.50;2.60;;;14.70;99.90;;;;;;5055637;28;20201;-59
2022/01/02 12:00:51;;;;;;;2.87;2.27;;;14.60;99.90;;;;;;5055199;28;20201;-58
2022/01/02 12:03:53;;;;;;;2.67;1.80;;;14.50;99.90;;;;;;5055176;28;20226;-60
2022/01/02 12:06:23;;;;;;;2.27;1.67;;;14.60;99.90;;;;;;5055049;28;20225;-60
2022/01/02 12:08:51;;;;;;;2.83;2.30;;;14.60;99.90;;;;;;5055260;28;20590;-60
2022/01/02 12:11:44;;;;;;;18.07;15.97;;;14.70;99.90;;;;;;5053943;28;20251;-59
2022/01/02 12:14:16;;;;;;;3.33;1.97;;;14.70;99.90;;;;;;5055092;28;20288;-59
2022/01/02 12:16:51;;;;;;;3.30;2.10;;;14.80;99.90;;;;;;5054871;28;20210;-59
2022/01/02 12:19:19;;;;;;;3.00;2.10;;;14.80;99.90;;;;;;5054930;28;20245;-59
2022/01/02 12:22:11;;;;;;;1.87;1.60;;;15.00;99.90;;;;;;5054649;28;20225;-59
2022/01/02 12:24:38;;;;;;;3.93;2.07;;;15.00;99.90;;;;;;5055072;28;20202;-58
2022/01/02 12:27:09;;;;;;;4.70;1.90;;;14.90;99.90;;;;;;5054733;28;20221;-58
2022/01/02 12:29:36;;;;;;;3.67;2.20;;;14.90;99.90;;;;;;5054169;28;20263;-58
2022/01/02 12:32:05;;;;;;;2.47;1.80;;;14.90;99.90;;;;;;5054582;28;20233;-58
2022/01/02 12:34:33;;;;;;;3.67;2.60;;;15.00;99.90;;;;;;5054822;28;20286;-58
2022/01/02 12:37:00;;;;;;;2.03;1.63;;;15.10;99.90;;;;;;5054700;28;20251;-58
2022/01/02 12:39:29;;;;;;;5.80;3.90;;;15.30;99.90;;;;;;5054665;28;20210;-58
2022/01/02 12:42:02;;;;;;;3.10;2.50;;;15.50;99.90;;;;;;5054640;28;20556;-58
2022/01/02 12:44:31;;;;;;;3.30;2.50;;;15.50;99.90;;;;;;5054726;28;20669;-58
2022/01/02 12:46:59;;;;;;;1.80;1.40;;;15.70;99.90;;;;;;5054498;28;20232;-58
2022/01/02 12:49:28;;;;;;;2.53;1.97;;;15.80;99.90;;;;;;5054433;28;20209;-58
2022/01/02 12:51:58;;;;;;;2.10;1.63;;;16.00;99.90;;;;;;5054495;28;20229;-59
2022/01/02 12:54:28;;;;;;;2.00;1.70;;;16.20;99.90;;;;;;5054117;28;20213;-59
2022/01/02 12:56:57;;;;;;;2.67;1.60;;;16.20;99.90;;;;;;5053934;28;20651;-59
2022/01/02 12:59:28;;;;;;;3.43;2.20;;;16.30;99.90;;;;;;5053478;28;20676;-59
2022/01/02 13:01:58;;;;;;;3.57;1.93;;;16.50;99.90;;;;;;5053853;28;20621;-58
2022/01/02 13:04:27;;;;;;;3.23;2.20;;;16.60;99.90;;;;;;5053955;28;20212;-58
2022/01/02 13:06:59;;;;;;;3.83;2.27;;;16.70;99.90;;;;;;5054818;28;20303;-59